Terminal Aerodrome Forecast
Issued by NWS

Home | Current Version | Previous Version | Text Only | Print | Product List | Glossary On
Versions: 1 2 3 4 5 6 7 8 9 10 11 12
270
FTUS43 KABR 230533
TAFPIR
TAF
KPIR 230533Z 2306/2406 18009KT P6SM SKC
     FM230900 19010KT P6SM SCT200
     FM240300 12014KT P6SM BKN200 WS020/19050KT=

USA.gov is the U.S. government's official web portal to all federal, state and local government web resources and services.